createdAt,value
2018-04-12T00:02:14.701Z,23.43
2018-04-12T00:04:42.949Z,31.73
2018-04-12T00:07:11.990Z,24.90
2018-04-12T00:09:40.295Z,26.13
2018-04-12T00:12:08.586Z,23.43
2018-04-12T00:14:37.647Z,33.20
2018-04-12T00:17:05.910Z,20.80
2018-04-12T00:19:34.137Z,28.83
2018-04-12T00:22:02.423Z,32.77
2018-04-12T00:24:30.705Z,30.10
2018-04-12T00:26:58.958Z,35.03
2018-04-12T00:29:27.186Z,33.83
2018-04-12T00:31:55.472Z,32.20
2018-04-12T00:34:23.857Z,38.37
2018-04-12T00:36:52.131Z,32.63
2018-04-12T00:39:20.368Z,37.63
2018-04-12T00:41:49.680Z,43.33
2018-04-12T00:44:18.699Z,32.07
2018-04-12T00:46:47.237Z,34.73
2018-04-12T00:49:15.488Z,42.73
2018-04-12T00:51:43.720Z,41.20
2018-04-12T00:54:12.783Z,35.87
2018-04-12T00:56:41.040Z,43.60
2018-04-12T00:59:09.791Z,41.93
2018-04-12T01:01:38.045Z,56.83
2018-04-12T01:04:06.296Z,52.90
2018-04-12T01:06:34.578Z,53.70
2018-04-12T01:09:02.815Z,51.67
2018-04-12T01:11:31.069Z,46.40
2018-04-12T01:13:59.348Z,45.83
2018-04-12T01:16:27.644Z,59.00
2018-04-12T01:18:56.433Z,56.83
2018-04-12T01:21:24.718Z,68.90
2018-04-12T01:23:53.290Z,63.13
2018-04-12T01:26:21.565Z,71.53
2018-04-12T01:28:49.814Z,69.97
2018-04-12T01:31:18.838Z,60.90
2018-04-12T01:33:47.193Z,69.50
2018-04-12T01:36:16.200Z,59.03
2018-04-12T01:38:44.513Z,52.80
2018-04-12T01:41:12.759Z,65.20
2018-04-12T01:43:41.021Z,56.43
2018-04-12T01:46:09.305Z,51.47
2018-04-12T01:48:37.585Z,50.63
2018-04-12T01:51:06.595Z,55.13
2018-04-12T01:53:34.867Z,63.73
2018-04-12T01:56:03.130Z,51.87
2018-04-12T01:58:32.164Z,56.73
2018-04-12T02:01:00.435Z,69.83
2018-04-12T02:03:28.713Z,65.57
2018-04-12T02:05:56.966Z,62.03
2018-04-12T02:08:25.222Z,60.07
2018-04-12T02:10:54.666Z,57.63
2018-04-12T02:13:24.472Z,64.43
2018-04-12T02:15:53.680Z,78.53
2018-04-12T02:18:22.176Z,65.80
2018-04-12T02:20:50.443Z,72.67
2018-04-12T02:23:18.665Z,69.97
2018-04-12T02:25:46.954Z,77.00
2018-04-12T02:28:15.190Z,77.83
2018-04-12T02:30:43.489Z,69.03
2018-04-12T02:33:12.564Z,72.20
2018-04-12T02:35:40.826Z,65.17
2018-04-12T02:38:09.100Z,68.37
2018-04-12T02:40:37.345Z,61.20
2018-04-12T02:43:05.629Z,66.00
2018-04-12T02:45:34.652Z,76.63
2018-04-12T02:48:02.901Z,65.43
2018-04-12T02:50:31.177Z,56.53
2018-04-12T02:52:59.496Z,61.93
2018-04-12T02:55:27.772Z,67.93
2018-04-12T02:57:56.023Z,62.97
2018-04-12T03:00:25.603Z,89.37
2018-04-12T03:02:53.871Z,70.37
2018-04-12T03:05:22.134Z,67.23
2018-04-12T03:07:50.973Z,66.77
2018-04-12T03:10:19.258Z,76.07
2018-04-12T03:12:47.520Z,71.17
2018-04-12T03:15:16.639Z,63.70
2018-04-12T03:17:46.238Z,65.13
2018-04-12T03:20:14.489Z,60.80
2018-04-12T03:22:43.501Z,60.27
2018-04-12T03:25:11.761Z,59.83
2018-04-12T03:27:40.787Z,61.33
2018-04-12T03:30:09.045Z,58.17
2018-04-12T03:32:38.054Z,63.20
2018-04-12T03:35:07.116Z,71.73
2018-04-12T03:37:36.158Z,79.27
2018-04-12T03:40:04.417Z,75.57
2018-04-12T03:42:33.430Z,71.90
2018-04-12T03:45:01.697Z,74.10
2018-04-12T03:47:30.783Z,77.80
2018-04-12T03:49:59.138Z,63.17
2018-04-12T03:52:27.408Z,67.80
2018-04-12T03:54:55.656Z,87.27
2018-04-12T03:57:24.856Z,81.13
2018-04-12T03:59:53.110Z,72.50
2018-04-12T04:02:21.362Z,70.50
2018-04-12T04:04:50.387Z,65.70
2018-04-12T04:07:18.665Z,69.83
2018-04-12T04:09:46.930Z,67.20
2018-04-12T04:12:15.172Z,67.70
2018-04-12T04:18:03.134Z,78.93
2018-04-12T04:20:43.253Z,71.73
2018-04-12T04:23:12.276Z,67.87
2018-04-12T04:25:40.846Z,71.10
2018-04-12T04:28:09.116Z,72.43
2018-04-12T04:30:37.388Z,63.03
2018-04-12T04:33:05.637Z,86.17
2018-04-12T04:35:33.920Z,68.27
2018-04-12T04:38:02.463Z,71.13
2018-04-12T04:40:30.836Z,73.73
2018-04-12T04:42:59.097Z,78.77
2018-04-12T04:45:27.354Z,74.43
2018-04-12T04:47:55.646Z,76.30
2018-04-12T04:50:23.891Z,76.70
2018-04-12T04:52:52.538Z,85.67
2018-04-12T04:55:20.783Z,85.93
2018-04-12T04:57:49.055Z,91.40
2018-04-12T05:00:17.332Z,93.27
2018-04-12T05:02:45.661Z,79.03
2018-04-12T05:05:13.949Z,79.77
2018-04-12T05:07:43.093Z,82.00
2018-04-12T05:10:11.358Z,92.30
2018-04-12T05:12:40.423Z,85.73
2018-04-12T05:15:08.677Z,81.37
2018-04-12T05:17:37.465Z,78.17
2018-04-12T05:20:06.153Z,84.40
2018-04-12T05:22:35.119Z,81.37
2018-04-12T05:25:04.478Z,86.13
2018-04-12T05:27:33.495Z,85.57
2018-04-12T05:30:01.742Z,71.43
2018-04-12T05:32:30.101Z,82.60
2018-04-12T05:34:58.372Z,107.67
2018-04-12T05:37:26.642Z,77.90
2018-04-12T05:39:54.925Z,93.63
2018-04-12T05:42:23.233Z,84.10
2018-04-12T05:44:51.552Z,100.77
2018-04-12T05:47:19.832Z,90.37
2018-04-12T05:49:48.063Z,81.67
2018-04-12T05:52:17.088Z,161.03
2018-04-12T05:54:45.396Z,200.43
2018-04-12T05:57:13.684Z,147.50
2018-04-12T05:59:41.962Z,103.50
2018-04-12T06:02:10.191Z,95.40
2018-04-12T06:04:38.475Z,79.23
2018-04-12T06:07:06.767Z,88.00
2018-04-12T06:09:35.859Z,86.33
2018-04-12T06:12:04.132Z,107.80
2018-04-12T06:14:32.412Z,90.33
2018-04-12T06:17:01.513Z,92.40
2018-04-12T06:19:29.780Z,84.83
2018-04-12T06:21:58.077Z,119.87
2018-04-12T06:24:26.341Z,80.33
2018-04-12T06:26:54.588Z,115.77
2018-04-12T06:29:22.866Z,99.50
2018-04-12T06:31:51.128Z,91.87
2018-04-12T06:34:19.734Z,104.10
2018-04-12T06:36:47.978Z,113.90
2018-04-12T06:39:17.651Z,84.50
2018-04-12T06:41:47.877Z,85.70
2018-04-12T06:44:16.127Z,84.37
2018-04-12T06:46:44.426Z,83.27
2018-04-12T06:49:13.457Z,107.93
2018-04-12T06:51:41.869Z,103.43
2018-04-12T06:54:10.887Z,77.70
2018-04-12T06:56:39.235Z,85.40
2018-04-12T06:59:09.114Z,92.63
2018-04-12T07:01:38.397Z,91.70
2018-04-12T07:04:07.438Z,103.70
2018-04-12T07:06:36.496Z,103.57
2018-04-12T07:09:04.772Z,76.60
2018-04-12T07:11:33.082Z,84.83
2018-04-12T07:14:02.137Z,76.90
2018-04-12T07:16:30.724Z,88.43
2018-04-12T07:19:00.031Z,95.40
2018-04-12T07:21:28.302Z,96.10
2018-04-12T07:23:57.439Z,105.97
2018-04-12T07:26:26.257Z,85.03
2018-04-12T07:28:56.223Z,93.90
2018-04-12T07:31:24.522Z,96.80
2018-04-12T07:33:53.570Z,91.53
2018-04-12T07:36:21.878Z,87.27
2018-04-12T07:38:51.115Z,100.97
2018-04-12T07:41:20.225Z,97.13
2018-04-12T07:43:48.541Z,97.83
2018-04-12T07:46:16.770Z,91.67
2018-04-12T07:48:45.078Z,99.37
2018-04-12T07:51:13.320Z,90.67
2018-04-12T07:53:42.620Z,94.53
2018-04-12T07:56:10.905Z,82.73
2018-04-12T07:58:40.318Z,88.40
2018-04-12T08:01:09.313Z,92.03
2018-04-12T08:03:37.594Z,89.40
2018-04-12T08:06:06.264Z,94.43
2018-04-12T08:08:34.533Z,101.50
2018-04-12T08:11:03.873Z,117.67
2018-04-12T08:13:32.157Z,88.23
2018-04-12T08:16:01.245Z,109.13
2018-04-12T08:18:29.552Z,112.00
2018-04-12T08:20:57.807Z,110.53
2018-04-12T08:23:26.102Z,104.43
2018-04-12T08:25:55.341Z,108.50
2018-04-12T08:28:24.379Z,109.00
2018-04-12T08:30:52.703Z,116.83
2018-04-12T08:33:20.943Z,113.47
2018-04-12T08:35:49.223Z,110.07
2018-04-12T08:38:17.501Z,101.27
2018-04-12T08:40:45.800Z,106.40
2018-04-12T08:43:14.206Z,107.30
2018-04-12T08:45:42.437Z,98.47
2018-04-12T08:48:10.756Z,97.03
2018-04-12T08:50:39.011Z,109.07
2018-04-12T08:53:07.340Z,105.40
2018-04-12T08:55:36.347Z,87.57
2018-04-12T08:58:04.602Z,104.47
2018-04-12T09:00:33.623Z,104.30
2018-04-12T09:03:01.995Z,94.17
2018-04-12T09:05:30.989Z,87.63
2018-04-12T09:07:59.315Z,97.23
2018-04-12T09:10:27.576Z,94.47
2018-04-12T09:12:55.804Z,88.00
2018-04-12T09:15:24.111Z,83.70
2018-04-12T09:17:52.366Z,84.43
2018-04-12T09:20:20.624Z,83.37
2018-04-12T09:22:49.012Z,90.67
2018-04-12T09:25:17.312Z,96.30
2018-04-12T09:27:45.592Z,81.37
2018-04-12T09:30:14.616Z,86.20
2018-04-12T09:32:43.908Z,77.60
2018-04-12T09:35:12.171Z,79.23
2018-04-12T09:37:41.406Z,84.13
2018-04-12T09:40:09.685Z,81.73
2018-04-12T09:42:37.997Z,70.77
2018-04-12T09:45:06.271Z,65.03
2018-04-12T09:47:35.341Z,66.93
2018-04-12T09:50:03.870Z,71.27
2018-04-12T09:52:32.141Z,57.20
2018-04-12T09:55:00.420Z,59.23
2018-04-12T09:57:29.411Z,57.23
2018-04-12T09:59:57.739Z,63.80
2018-04-12T10:02:28.572Z,59.33
2018-04-12T10:05:00.789Z,75.33
2018-04-12T10:07:35.467Z,56.83
2018-04-12T10:10:04.182Z,55.03
2018-04-12T10:12:32.470Z,60.17
2018-04-12T10:15:01.503Z,69.10
2018-04-12T10:17:29.833Z,59.40
2018-04-12T10:19:58.095Z,61.90
2018-04-12T10:22:26.345Z,56.17
2018-04-12T10:24:54.633Z,50.33
2018-04-12T10:27:22.921Z,57.60
2018-04-12T10:29:52.785Z,64.67
2018-04-12T10:32:21.082Z,52.83
2018-04-12T10:34:49.435Z,54.93
2018-04-12T10:37:17.712Z,64.07
2018-04-12T10:39:46.773Z,59.80
2018-04-12T10:42:15.409Z,67.97
2018-04-12T10:44:43.694Z,62.77
2018-04-12T10:47:12.308Z,58.20
2018-04-12T10:49:40.619Z,62.63
2018-04-12T10:52:08.907Z,55.30
2018-04-12T10:54:37.997Z,54.57
2018-04-12T10:57:06.282Z,54.93
2018-04-12T10:59:34.786Z,49.87
2018-04-12T11:02:05.076Z,55.73
2018-04-12T11:04:33.343Z,45.27
2018-04-12T11:07:02.388Z,48.70
2018-04-12T11:09:30.682Z,51.10
2018-04-12T11:11:58.933Z,41.43
2018-04-12T11:14:27.184Z,42.50
2018-04-12T11:16:56.243Z,45.53
2018-04-12T11:19:24.527Z,45.17
2018-04-12T11:21:52.823Z,44.07
2018-04-12T11:24:21.072Z,47.70
2018-04-12T11:26:49.365Z,39.93
2018-04-12T11:29:17.694Z,30.23
2018-04-12T11:31:45.987Z,33.70
2018-04-12T11:34:15.077Z,41.67
2018-04-12T11:36:44.095Z,36.43
2018-04-12T11:39:13.473Z,38.53
2018-04-12T11:41:41.821Z,52.87
2018-04-12T11:44:12.088Z,36.23
2018-04-12T11:46:40.313Z,50.90
2018-04-12T11:49:08.675Z,48.20
2018-04-12T11:51:36.947Z,39.57
2018-04-12T11:54:05.591Z,33.70
2018-04-12T11:56:33.845Z,33.20
2018-04-12T11:59:02.603Z,35.20
2018-04-12T12:01:31.144Z,47.67
2018-04-12T12:03:59.494Z,36.13
2018-04-12T12:06:27.813Z,29.90
2018-04-12T12:08:56.832Z,36.93
2018-04-12T12:11:25.151Z,39.70
2018-04-12T12:13:53.404Z,45.83
2018-04-12T12:16:21.681Z,46.40
2018-04-12T12:18:49.961Z,37.00
2018-04-12T12:21:18.256Z,49.00
2018-04-12T12:23:48.306Z,39.73
2018-04-12T12:26:16.509Z,47.23
2018-04-12T12:28:44.798Z,47.87
2018-04-12T12:31:13.068Z,40.50
2018-04-12T12:33:41.354Z,48.93
2018-04-12T12:36:09.611Z,44.23
2018-04-12T12:38:39.198Z,38.67
2018-04-12T12:41:07.488Z,54.53
2018-04-12T12:43:35.942Z,39.70
2018-04-12T12:46:04.514Z,51.90
2018-04-12T12:48:33.582Z,56.47
2018-04-12T12:51:01.873Z,48.20
2018-04-12T12:53:30.198Z,42.47
2018-04-12T12:55:59.266Z,38.20
2018-04-12T12:58:27.477Z,46.40
2018-04-12T13:00:55.732Z,56.10
2018-04-12T13:03:24.015Z,43.67
2018-04-12T13:05:52.368Z,45.37
2018-04-12T13:08:20.691Z,42.93
2018-04-12T13:10:49.339Z,36.03
2018-04-12T13:13:17.600Z,39.30
2018-04-12T13:15:45.873Z,34.43
2018-04-12T13:18:14.235Z,36.50
2018-04-12T13:20:42.468Z,48.77
2018-04-12T13:23:10.890Z,44.13
2018-04-12T13:25:39.267Z,51.47
2018-04-12T13:28:07.597Z,31.80
2018-04-12T13:30:35.889Z,29.63
2018-04-12T13:33:04.980Z,34.27
2018-04-12T13:35:34.129Z,31.97
2018-04-12T13:38:02.406Z,27.30
2018-04-12T13:40:30.664Z,36.00
2018-04-12T13:42:58.954Z,42.37
2018-04-12T13:45:27.237Z,47.73
2018-04-12T13:47:56.067Z,32.23
2018-04-12T13:50:25.110Z,28.40
2018-04-12T13:52:53.392Z,62.53
2018-04-12T13:55:21.656Z,34.10
2018-04-12T13:57:50.005Z,41.80
2018-04-12T14:00:18.478Z,35.07
2018-04-12T14:02:47.875Z,31.67
2018-04-12T14:05:16.147Z,34.50
2018-04-12T14:07:44.395Z,27.77
2018-04-12T14:10:12.686Z,39.60
2018-04-12T14:12:41.140Z,27.30
2018-04-12T14:15:10.349Z,27.27
2018-04-12T14:17:39.926Z,30.30
2018-04-12T14:20:08.951Z,40.17
2018-04-12T14:22:37.205Z,24.87
2018-04-12T14:25:05.472Z,25.93
2018-04-12T14:27:34.535Z,40.93
2018-04-12T14:30:03.719Z,22.40
2018-04-12T14:32:32.081Z,35.43
2018-04-12T14:35:01.182Z,32.83
2018-04-12T14:37:29.910Z,31.27
2018-04-12T14:39:59.225Z,36.67
2018-04-12T14:42:28.826Z,25.27
2018-04-12T14:44:57.109Z,27.27
2018-04-12T14:47:25.908Z,35.47
2018-04-12T14:49:54.975Z,28.23
2018-04-12T14:52:23.990Z,37.40
2018-04-12T14:54:53.382Z,31.27
2018-04-12T14:57:21.925Z,34.63
2018-04-12T14:59:50.186Z,39.57
2018-04-12T15:02:18.431Z,34.17
2018-04-12T15:04:47.471Z,27.40
2018-04-12T15:07:15.865Z,33.67
2018-04-12T15:09:44.129Z,33.97
2018-04-12T15:12:12.698Z,35.53
2018-04-12T15:14:40.974Z,26.13
2018-04-12T15:17:09.992Z,34.90
2018-04-12T15:19:38.252Z,34.60
2018-04-12T15:22:06.541Z,30.57
2018-04-12T15:24:34.965Z,20.40
2018-04-12T15:27:03.247Z,30.07
2018-04-12T15:29:33.071Z,31.17
2018-04-12T15:32:01.422Z,26.17
2018-04-12T15:34:29.911Z,25.53
2018-04-12T15:36:58.173Z,29.53
2018-04-12T15:39:26.473Z,23.87
2018-04-12T15:41:54.724Z,24.83
2018-04-12T15:44:23.008Z,37.57
2018-04-12T15:46:51.499Z,28.30
2018-04-12T15:49:19.804Z,38.30
2018-04-12T15:51:48.886Z,31.20
2018-04-12T15:54:18.005Z,30.80
2018-04-12T15:56:47.066Z,25.60
2018-04-12T15:59:16.714Z,29.37
2018-04-12T16:01:46.459Z,22.70
2018-04-12T16:04:14.776Z,21.70
2018-04-12T16:06:43.222Z,23.40
2018-04-12T16:09:11.510Z,18.20
2018-04-12T16:11:39.840Z,27.57
2018-04-12T16:14:09.066Z,21.27
2018-04-12T16:16:37.699Z,27.27
2018-04-12T16:19:06.032Z,14.70
2018-04-12T16:21:35.183Z,21.00
2018-04-12T16:24:04.741Z,20.43
2018-04-12T16:26:33.016Z,19.97
2018-04-12T16:29:01.312Z,14.80
2018-04-12T16:31:29.988Z,20.50
2018-04-12T16:33:58.311Z,22.37
2018-04-12T16:36:26.736Z,12.37
2018-04-12T16:38:55.038Z,13.30
2018-04-12T16:41:23.338Z,14.13
2018-04-12T16:43:52.031Z,22.53
2018-04-12T16:46:20.293Z,14.30
2018-04-12T16:48:48.593Z,25.97
2018-04-12T16:51:17.439Z,20.03
2018-04-12T16:53:46.065Z,11.27
2018-04-12T16:56:15.267Z,18.43
2018-04-12T16:58:45.380Z,13.20
2018-04-12T17:01:13.762Z,17.67
2018-04-12T17:03:42.299Z,13.53
2018-04-12T17:06:11.413Z,9.80
2018-04-12T17:08:40.185Z,16.50
2018-04-12T17:11:09.024Z,15.40
2018-04-12T17:13:37.317Z,24.47
2018-04-12T17:16:05.631Z,13.90
2018-04-12T17:18:33.921Z,19.40
2018-04-12T17:21:02.247Z,16.23
2018-04-12T17:23:31.349Z,20.03
2018-04-12T17:25:59.639Z,15.87
2018-04-12T17:28:28.712Z,25.87
2018-04-12T17:30:57.157Z,22.20
2018-04-12T17:33:25.878Z,23.63
2018-04-12T17:35:54.199Z,20.57
2018-04-12T17:38:23.735Z,18.73
2018-04-12T17:40:52.012Z,20.33
2018-04-12T17:43:22.963Z,15.50
2018-04-12T17:45:52.180Z,9.40
2018-04-12T17:48:21.344Z,13.97
2018-04-12T17:50:49.657Z,16.37
2018-04-12T17:53:18.868Z,17.50
2018-04-12T17:55:47.124Z,16.17
2018-04-12T17:58:15.418Z,14.70
2018-04-12T18:00:44.568Z,10.83
2018-04-12T18:03:14.393Z,12.97
2018-04-12T18:05:43.193Z,14.70
2018-04-12T18:08:11.963Z,13.27
2018-04-12T18:10:40.412Z,21.30
2018-04-12T18:13:09.509Z,13.90
2018-04-12T18:15:38.567Z,15.77
2018-04-12T18:18:06.829Z,10.07
2018-04-12T18:20:35.192Z,15.10
2018-04-12T18:23:03.500Z,12.87
2018-04-12T18:25:31.779Z,15.00
2018-04-12T18:28:00.073Z,32.93
2018-04-12T18:30:30.488Z,10.13
2018-04-12T18:32:58.910Z,19.43
2018-04-12T18:35:28.080Z,17.73
2018-04-12T18:37:56.362Z,15.40
2018-04-12T18:40:24.653Z,24.60
2018-04-12T18:42:53.723Z,17.17
2018-04-12T18:45:22.125Z,13.43
2018-04-12T18:47:50.406Z,15.23
2018-04-12T18:50:19.899Z,14.40
2018-04-12T18:52:48.920Z,19.60
2018-04-12T18:55:18.018Z,21.43
2018-04-12T18:57:47.023Z,16.70
2018-04-12T19:00:16.383Z,14.97
2018-04-12T19:02:45.605Z,15.73
2018-04-12T19:05:14.884Z,16.17
2018-04-12T19:07:43.780Z,16.53
2018-04-12T19:10:13.482Z,17.17
2018-04-12T19:12:41.873Z,16.43
2018-04-12T19:15:11.721Z,15.40
2018-04-12T19:17:43.561Z,17.30
2018-04-12T19:20:12.121Z,15.00
2018-04-12T19:22:40.684Z,23.20
2018-04-12T19:25:09.033Z,12.63
2018-04-12T19:27:38.773Z,18.73
2018-04-12T19:30:07.205Z,38.80
2018-04-12T19:32:37.412Z,17.20
2018-04-12T19:35:05.700Z,18.87
2018-04-12T19:37:35.066Z,30.87
2018-04-12T19:40:03.595Z,22.37
2018-04-12T19:42:32.639Z,17.53
2018-04-12T19:45:02.131Z,20.87
2018-04-12T19:47:31.060Z,17.83
2018-04-12T19:50:00.573Z,20.47
2018-04-12T19:52:30.248Z,26.80
2018-04-12T19:54:58.581Z,18.00
2018-04-12T19:57:26.881Z,21.33
2018-04-12T19:59:55.327Z,20.43
2018-04-12T20:02:24.373Z,23.60
2018-04-12T20:04:53.405Z,21.30
2018-04-12T20:07:21.743Z,26.23
2018-04-12T20:09:50.146Z,20.70
2018-04-12T20:12:19.782Z,18.43
2018-04-12T20:14:48.875Z,15.23
2018-04-12T20:17:18.041Z,19.93
2018-04-12T20:19:46.874Z,22.73
2018-04-12T20:22:15.320Z,21.77
2018-04-12T20:24:43.594Z,16.63
2018-04-12T20:27:13.642Z,24.37
2018-04-12T20:29:42.524Z,31.27
2018-04-12T20:32:11.343Z,18.70
2018-04-12T20:34:39.821Z,19.30
2018-04-12T20:37:08.233Z,18.80
2018-04-12T20:39:37.000Z,25.30
2018-04-12T20:42:05.291Z,33.27
2018-04-12T20:44:36.974Z,22.87
2018-04-12T20:47:08.925Z,28.70
2018-04-12T20:49:37.356Z,20.50
2018-04-12T20:52:05.604Z,18.03
2018-04-12T20:54:33.862Z,21.13
2018-04-12T20:57:02.113Z,22.10
2018-04-12T20:59:31.268Z,23.10
2018-04-12T21:01:59.528Z,24.50
2018-04-12T21:04:27.790Z,23.03
2018-04-12T21:06:56.069Z,20.53
2018-04-12T21:09:24.390Z,19.03
2018-04-12T21:11:52.673Z,37.40
2018-04-12T21:14:21.014Z,23.07
2018-04-12T21:16:49.997Z,31.40
2018-04-12T21:19:18.281Z,19.20
2018-04-12T21:21:46.565Z,27.97
2018-04-12T21:24:14.827Z,20.53
2018-04-12T21:26:43.381Z,22.00
2018-04-12T21:29:11.669Z,27.00
2018-04-12T21:31:40.744Z,38.80
2018-04-12T21:34:09.003Z,24.63
2018-04-12T21:36:37.286Z,25.37
2018-04-12T21:39:05.549Z,31.07
2018-04-12T21:41:33.825Z,27.77
2018-04-12T21:44:02.101Z,24.90
2018-04-12T21:46:30.399Z,28.30
2018-04-12T21:48:58.656Z,28.80
2018-04-12T21:51:26.924Z,24.53
2018-04-12T21:53:55.196Z,27.07
2018-04-12T21:56:23.657Z,35.37
2018-04-12T21:58:51.941Z,47.73
2018-04-12T22:01:20.953Z,20.47
2018-04-12T22:03:49.245Z,29.97
2018-04-12T22:06:17.507Z,21.87
2018-04-12T22:08:46.801Z,24.93
2018-04-12T22:11:15.063Z,25.03
2018-04-12T22:13:43.348Z,36.57
2018-04-12T22:16:11.618Z,29.97
2018-04-12T22:18:40.264Z,29.30
2018-04-12T22:21:08.848Z,28.67
2018-04-12T22:23:37.114Z,52.33
2018-04-12T22:26:05.364Z,28.93
2018-04-12T22:28:33.660Z,33.13
2018-04-12T22:31:02.904Z,22.57
2018-04-12T22:33:31.162Z,23.90
2018-04-12T22:36:00.235Z,22.00
2018-04-12T22:38:28.492Z,21.00
2018-04-12T22:40:56.757Z,22.17
2018-04-12T22:43:25.513Z,23.97
2018-04-12T22:45:53.765Z,23.27
2018-04-12T22:48:22.068Z,19.97
2018-04-12T22:50:50.306Z,24.00
2018-04-12T22:53:18.617Z,17.90
2018-04-12T22:55:47.663Z,22.30
2018-04-12T22:58:15.948Z,25.20
2018-04-12T23:00:44.228Z,23.00
2018-04-12T23:03:14.908Z,18.77
2018-04-12T23:05:43.994Z,30.93
2018-04-12T23:08:12.262Z,23.10
2018-04-12T23:10:41.435Z,21.13
2018-04-12T23:13:09.755Z,19.13
2018-04-12T23:15:38.802Z,25.33
2018-04-12T23:18:07.091Z,21.20
2018-04-12T23:20:35.388Z,23.90
2018-04-12T23:23:03.641Z,22.17
2018-04-12T23:25:31.946Z,19.40
2018-04-12T23:28:00.201Z,28.03
2018-04-12T23:30:29.398Z,26.13
2018-04-12T23:32:57.648Z,26.30
2018-04-12T23:35:25.969Z,36.80
2018-04-12T23:37:55.206Z,28.53
2018-04-12T23:40:23.476Z,38.43
2018-04-12T23:42:52.492Z,31.27
2018-04-12T23:45:20.746Z,32.03
2018-04-12T23:47:49.801Z,30.83
2018-04-12T23:50:18.172Z,33.00
2018-04-12T23:52:46.403Z,33.93
2018-04-12T23:55:14.718Z,29.30
2018-04-12T23:57:43.034Z,31.87
